sensor_id;sensor_type;location;lat;lon;timestamp;temperature;humidity
7030;DHT22;3556;53.500;10.176;2022-10-15T00:01:42;13.90;99.90
7030;DHT22;3556;53.500;10.176;2022-10-15T00:04:07;13.90;99.90
7030;DHT22;3556;53.500;10.176;2022-10-15T00:06:33;13.90;99.90
7030;DHT22;3556;53.500;10.176;2022-10-15T00:08:59;13.90;99.90
7030;DHT22;3556;53.500;10.176;2022-10-15T00:11:26;13.90;99.90
7030;DHT22;3556;53.500;10.176;2022-10-15T00:13:53;14.00;99.90
7030;DHT22;3556;53.500;10.176;2022-10-15T00:16:21;13.90;99.90
7030;DHT22;3556;53.500;10.176;2022-10-15T00:18:48;13.90;99.90
7030;DHT22;3556;53.500;10.176;2022-10-15T00:21:15;13.90;99.90
7030;DHT22;3556;53.500;10.176;2022-10-15T00:23:42;14.00;99.90
7030;DHT22;3556;53.500;10.176;2022-10-15T00:26:14;13.90;99.90
7030;DHT22;3556;53.500;10.176;2022-10-15T00:28:40;14.00;99.90
7030;DHT22;3556;53.500;10.176;2022-10-15T00:31:09;14.00;99.90
7030;DHT22;3556;53.500;10.176;2022-10-15T00:33:36;14.00;99.90
7030;DHT22;3556;53.500;10.176;2022-10-15T00:36:06;14.00;99.90
7030;DHT22;3556;53.500;10.176;2022-10-15T00:38:32;14.00;99.90
7030;DHT22;3556;53.500;10.176;2022-10-15T00:40:58;14.00;99.90
7030;DHT22;3556;53.500;10.176;2022-10-15T00:43:45;14.00;99.90
7030;DHT22;3556;53.500;10.176;2022-10-15T00:51:40;14.00;99.90
7030;DHT22;3556;53.500;10.176;2022-10-15T00:54:07;14.00;99.90
7030;DHT22;3556;53.500;10.176;2022-10-15T00:56:34;14.00;99.90
7030;DHT22;3556;53.500;10.176;2022-10-15T00:59:01;14.00;99.90
7030;DHT22;3556;53.500;10.176;2022-10-15T01:01:28;14.00;99.90
7030;DHT22;3556;53.500;10.176;2022-10-15T01:03:55;14.00;99.90
7030;DHT22;3556;53.500;10.176;2022-10-15T01:06:21;14.00;99.90
7030;DHT22;3556;53.500;10.176;2022-10-15T01:08:47;14.00;99.90
7030;DHT22;3556;53.500;10.176;2022-10-15T01:14:27;14.00;99.90
7030;DHT22;3556;53.500;10.176;2022-10-15T01:25:54;14.10;99.90
7030;DHT22;3556;53.500;10.176;2022-10-15T01:36:30;14.10;99.90
7030;DHT22;3556;53.500;10.176;2022-10-15T01:39:00;14.10;99.90
7030;DHT22;3556;53.500;10.176;2022-10-15T01:41:42;14.10;99.90
7030;DHT22;3556;53.500;10.176;2022-10-15T01:44:10;14.10;99.90
7030;DHT22;3556;53.500;10.176;2022-10-15T01:47:02;14.10;99.90
7030;DHT22;3556;53.500;10.176;2022-10-15T01:49:32;14.10;99.90
7030;DHT22;3556;53.500;10.176;2022-10-15T01:52:03;14.10;99.90
7030;DHT22;3556;53.500;10.176;2022-10-15T01:54:29;14.00;99.90
7030;DHT22;3556;53.500;10.176;2022-10-15T01:56:55;14.10;99.90
7030;DHT22;3556;53.500;10.176;2022-10-15T01:59:25;14.00;99.90
7030;DHT22;3556;53.500;10.176;2022-10-15T02:01:51;14.00;99.90
7030;DHT22;3556;53.500;10.176;2022-10-15T02:04:28;14.00;99.90
7030;DHT22;3556;53.500;10.176;2022-10-15T02:12:23;14.00;99.90
7030;DHT22;3556;53.500;10.176;2022-10-15T02:15:07;14.00;99.90
7030;DHT22;3556;53.500;10.176;2022-10-15T02:17:42;13.90;99.90
7030;DHT22;3556;53.500;10.176;2022-10-15T02:20:21;13.90;99.90
7030;DHT22;3556;53.500;10.176;2022-10-15T02:22:55;13.80;99.90
7030;DHT22;3556;53.500;10.176;2022-10-15T02:25:23;13.80;99.90
7030;DHT22;3556;53.500;10.176;2022-10-15T02:27:51;13.70;99.90
7030;DHT22;3556;53.500;10.176;2022-10-15T02:30:18;13.70;99.90
7030;DHT22;3556;53.500;10.176;2022-10-15T02:32:48;13.60;99.90
7030;DHT22;3556;53.500;10.176;2022-10-15T02:35:15;13.50;99.90
7030;DHT22;3556;53.500;10.176;2022-10-15T02:37:45;13.50;99.90
7030;DHT22;3556;53.500;10.176;2022-10-15T02:40:12;13.40;99.90
7030;DHT22;3556;53.500;10.176;2022-10-15T02:42:38;13.40;99.90
7030;DHT22;3556;53.500;10.176;2022-10-15T02:45:04;13.30;99.90
7030;DHT22;3556;53.500;10.176;2022-10-15T02:47:30;13.30;99.90
7030;DHT22;3556;53.500;10.176;2022-10-15T02:49:56;13.20;99.90
7030;DHT22;3556;53.500;10.176;2022-10-15T02:52:21;13.20;99.90
7030;DHT22;3556;53.500;10.176;2022-10-15T02:54:47;13.20;99.90
7030;DHT22;3556;53.500;10.176;2022-10-15T02:57:12;13.10;99.90
7030;DHT22;3556;53.500;10.176;2022-10-15T02:59:38;13.10;99.90
7030;DHT22;3556;53.500;10.176;2022-10-15T03:02:03;13.10;99.90
7030;DHT22;3556;53.500;10.176;2022-10-15T03:04:29;13.10;99.90
7030;DHT22;3556;53.500;10.176;2022-10-15T03:06:55;13.10;99.90
7030;DHT22;3556;53.500;10.176;2022-10-15T03:09:20;13.10;99.90
7030;DHT22;3556;53.500;10.176;2022-10-15T03:11:46;13.10;99.90
7030;DHT22;3556;53.500;10.176;2022-10-15T03:14:12;13.20;99.90
7030;DHT22;3556;53.500;10.176;2022-10-15T03:16:37;13.10;99.90
7030;DHT22;3556;53.500;10.176;2022-10-15T03:19:03;13.10;99.90
7030;DHT22;3556;53.500;10.176;2022-10-15T03:21:28;13.10;99.90
7030;DHT22;3556;53.500;10.176;2022-10-15T03:23:56;13.10;99.90
7030;DHT22;3556;53.500;10.176;2022-10-15T03:26:22;13.10;99.90
7030;DHT22;3556;53.500;10.176;2022-10-15T03:28:47;13.00;99.90
7030;DHT22;3556;53.500;10.176;2022-10-15T03:31:13;13.10;99.90
7030;DHT22;3556;53.500;10.176;2022-10-15T03:33:39;13.00;99.90
7030;DHT22;3556;53.500;10.176;2022-10-15T03:36:05;13.00;99.90
7030;DHT22;3556;53.500;10.176;2022-10-15T03:38:31;12.90;99.90
7030;DHT22;3556;53.500;10.176;2022-10-15T03:40:56;12.90;99.90
7030;DHT22;3556;53.500;10.176;2022-10-15T03:43:23;12.90;99.90
7030;DHT22;3556;53.500;10.176;2022-10-15T03:45:50;12.80;99.90
7030;DHT22;3556;53.500;10.176;2022-10-15T03:48:16;12.80;99.90
7030;DHT22;3556;53.500;10.176;2022-10-15T03:50:41;12.70;99.90
7030;DHT22;3556;53.500;10.176;2022-10-15T03:53:07;12.70;99.90
7030;DHT22;3556;53.500;10.176;2022-10-15T03:55:33;12.60;99.90
7030;DHT22;3556;53.500;10.176;2022-10-15T03:57:59;12.60;99.90
7030;DHT22;3556;53.500;10.176;2022-10-15T04:00:24;12.50;99.90
7030;DHT22;3556;53.500;10.176;2022-10-15T04:02:50;12.50;99.90
7030;DHT22;3556;53.500;10.176;2022-10-15T04:05:16;12.40;99.90
7030;DHT22;3556;53.500;10.176;2022-10-15T04:07:41;12.40;99.90
7030;DHT22;3556;53.500;10.176;2022-10-15T04:10:07;12.40;99.90
7030;DHT22;3556;53.500;10.176;2022-10-15T04:12:33;12.40;99.90
7030;DHT22;3556;53.500;10.176;2022-10-15T04:14:59;12.30;99.90
7030;DHT22;3556;53.500;10.176;2022-10-15T04:17:24;12.30;99.90
7030;DHT22;3556;53.500;10.176;2022-10-15T04:19:50;12.30;99.90
7030;DHT22;3556;53.500;10.176;2022-10-15T04:22:15;12.30;99.90
7030;DHT22;3556;53.500;10.176;2022-10-15T04:24:41;12.30;99.90
7030;DHT22;3556;53.500;10.176;2022-10-15T04:27:07;12.20;99.90
7030;DHT22;3556;53.500;10.176;2022-10-15T04:29:32;12.20;99.90
7030;DHT22;3556;53.500;10.176;2022-10-15T04:31:58;12.20;99.90
7030;DHT22;3556;53.500;10.176;2022-10-15T04:34:24;12.20;99.90
7030;DHT22;3556;53.500;10.176;2022-10-15T04:36:50;12.20;99.90
7030;DHT22;3556;53.500;10.176;2022-10-15T04:39:15;12.20;99.90
7030;DHT22;3556;53.500;10.176;2022-10-15T04:41:41;12.20;99.90
7030;DHT22;3556;53.500;10.176;2022-10-15T04:44:06;12.20;99.90
7030;DHT22;3556;53.500;10.176;2022-10-15T04:46:32;12.20;99.90
7030;DHT22;3556;53.500;10.176;2022-10-15T04:48:58;12.20;99.90
7030;DHT22;3556;53.500;10.176;2022-10-15T04:51:25;12.20;99.90
7030;DHT22;3556;53.500;10.176;2022-10-15T04:53:50;12.20;99.90
7030;DHT22;3556;53.500;10.176;2022-10-15T04:56:19;12.20;99.90
7030;DHT22;3556;53.500;10.176;2022-10-15T04:58:46;12.20;99.90
7030;DHT22;3556;53.500;10.176;2022-10-15T05:01:14;12.20;99.90
7030;DHT22;3556;53.500;10.176;2022-10-15T05:03:42;12.20;99.90
7030;DHT22;3556;53.500;10.176;2022-10-15T05:06:11;12.20;99.90
7030;DHT22;3556;53.500;10.176;2022-10-15T05:08:37;12.20;99.90
7030;DHT22;3556;53.500;10.176;2022-10-15T05:11:11;12.20;99.90
7030;DHT22;3556;53.500;10.176;2022-10-15T05:13:37;12.20;99.90
7030;DHT22;3556;53.500;10.176;2022-10-15T05:16:23;12.20;99.90
7030;DHT22;3556;53.500;10.176;2022-10-15T05:18:52;12.20;99.90
7030;DHT22;3556;53.500;10.176;2022-10-15T05:21:19;12.20;99.90
7030;DHT22;3556;53.500;10.176;2022-10-15T05:23:45;12.20;99.90
7030;DHT22;3556;53.500;10.176;2022-10-15T05:26:14;12.20;99.90
7030;DHT22;3556;53.500;10.176;2022-10-15T05:28:40;12.20;99.90
7030;DHT22;3556;53.500;10.176;2022-10-15T05:31:07;12.20;99.90
7030;DHT22;3556;53.500;10.176;2022-10-15T05:33:33;12.30;99.90
7030;DHT22;3556;53.500;10.176;2022-10-15T05:36:26;12.30;99.90
7030;DHT22;3556;53.500;10.176;2022-10-15T05:38:57;12.30;99.90
7030;DHT22;3556;53.500;10.176;2022-10-15T05:41:23;12.30;99.90
7030;DHT22;3556;53.500;10.176;2022-10-15T05:43:51;12.30;99.90
7030;DHT22;3556;53.500;10.176;2022-10-15T05:46:18;12.30;99.90
7030;DHT22;3556;53.500;10.176;2022-10-15T05:48:48;12.40;99.90
7030;DHT22;3556;53.500;10.176;2022-10-15T05:51:14;12.40;99.90
7030;DHT22;3556;53.500;10.176;2022-10-15T05:53:40;12.40;99.90
7030;DHT22;3556;53.500;10.176;2022-10-15T05:56:07;12.40;99.90
7030;DHT22;3556;53.500;10.176;2022-10-15T05:58:34;12.40;99.90
7030;DHT22;3556;53.500;10.176;2022-10-15T06:01:02;12.40;99.90
7030;DHT22;3556;53.500;10.176;2022-10-15T06:03:28;12.40;99.90
7030;DHT22;3556;53.500;10.176;2022-10-15T06:05:54;12.40;99.90
7030;DHT22;3556;53.500;10.176;2022-10-15T06:08:20;12.40;99.90
7030;DHT22;3556;53.500;10.176;2022-10-15T06:10:46;12.40;99.90
7030;DHT22;3556;53.500;10.176;2022-10-15T06:13:12;12.40;99.90
7030;DHT22;3556;53.500;10.176;2022-10-15T06:15:43;12.40;99.90
7030;DHT22;3556;53.500;10.176;2022-10-15T06:18:10;12.40;99.90
7030;DHT22;3556;53.500;10.176;2022-10-15T06:20:37;12.40;99.90
7030;DHT22;3556;53.500;10.176;2022-10-15T06:23:04;12.50;99.90
7030;DHT22;3556;53.500;10.176;2022-10-15T06:25:30;12.50;99.90
7030;DHT22;3556;53.500;10.176;2022-10-15T06:28:03;12.50;99.90
7030;DHT22;3556;53.500;10.176;2022-10-15T06:30:29;12.50;99.90
7030;DHT22;3556;53.500;10.176;2022-10-15T06:32:56;12.50;99.90
7030;DHT22;3556;53.500;10.176;2022-10-15T06:35:23;12.50;99.90
7030;DHT22;3556;53.500;10.176;2022-10-15T06:37:49;12.50;99.90
7030;DHT22;3556;53.500;10.176;2022-10-15T06:40:15;12.50;99.90
7030;DHT22;3556;53.500;10.176;2022-10-15T06:42:41;12.50;99.90
7030;DHT22;3556;53.500;10.176;2022-10-15T06:45:07;12.50;99.90
7030;DHT22;3556;53.500;10.176;2022-10-15T06:47:35;12.40;99.90
7030;DHT22;3556;53.500;10.176;2022-10-15T06:50:02;12.40;99.90
7030;DHT22;3556;53.500;10.176;2022-10-15T06:52:29;12.40;99.90
7030;DHT22;3556;53.500;10.176;2022-10-15T06:54:55;12.40;99.90
7030;DHT22;3556;53.500;10.176;2022-10-15T06:57:21;12.40;99.90
7030;DHT22;3556;53.500;10.176;2022-10-15T06:59:46;12.40;99.90
7030;DHT22;3556;53.500;10.176;2022-10-15T07:02:12;12.40;99.90
7030;DHT22;3556;53.500;10.176;2022-10-15T07:04:42;12.50;99.90
7030;DHT22;3556;53.500;10.176;2022-10-15T07:07:08;12.50;99.90
7030;DHT22;3556;53.500;10.176;2022-10-15T07:09:33;12.50;99.90
7030;DHT22;3556;53.500;10.176;2022-10-15T07:11:59;12.50;99.90
7030;DHT22;3556;53.500;10.176;2022-10-15T07:14:25;12.60;99.90
7030;DHT22;3556;53.500;10.176;2022-10-15T07:16:51;12.60;99.90
7030;DHT22;3556;53.500;10.176;2022-10-15T07:19:16;12.70;99.90
7030;DHT22;3556;53.500;10.176;2022-10-15T07:21:42;12.70;99.90
7030;DHT22;3556;53.500;10.176;2022-10-15T07:24:07;12.80;99.90
7030;DHT22;3556;53.500;10.176;2022-10-15T07:26:33;12.80;99.90
7030;DHT22;3556;53.500;10.176;2022-10-15T07:28:59;12.80;99.90
7030;DHT22;3556;53.500;10.176;2022-10-15T07:31:25;12.90;99.90
7030;DHT22;3556;53.500;10.176;2022-10-15T07:33:51;12.90;99.90
7030;DHT22;3556;53.500;10.176;2022-10-15T07:36:16;13.00;99.90
7030;DHT22;3556;53.500;10.176;2022-10-15T07:38:42;13.00;99.90
7030;DHT22;3556;53.500;10.176;2022-10-15T07:41:09;13.00;99.90
7030;DHT22;3556;53.500;10.176;2022-10-15T07:43:35;13.10;99.90
7030;DHT22;3556;53.500;10.176;2022-10-15T07:46:02;13.00;99.90
7030;DHT22;3556;53.500;10.176;2022-10-15T07:48:28;13.00;99.90
7030;DHT22;3556;53.500;10.176;2022-10-15T07:50:58;13.00;99.90
7030;DHT22;3556;53.500;10.176;2022-10-15T07:53:24;13.10;99.90
7030;DHT22;3556;53.500;10.176;2022-10-15T07:55:50;13.10;99.90
7030;DHT22;3556;53.500;10.176;2022-10-15T07:58:16;13.20;99.90
7030;DHT22;3556;53.500;10.176;2022-10-15T08:00:42;13.20;99.90
7030;DHT22;3556;53.500;10.176;2022-10-15T08:03:08;13.30;99.90
7030;DHT22;3556;53.500;10.176;2022-10-15T08:05:33;13.30;99.90
7030;DHT22;3556;53.500;10.176;2022-10-15T08:07:59;13.30;99.90
7030;DHT22;3556;53.500;10.176;2022-10-15T08:10:25;13.40;99.90
7030;DHT22;3556;53.500;10.176;2022-10-15T08:12:51;13.30;99.90
7030;DHT22;3556;53.500;10.176;2022-10-15T08:15:17;13.40;99.90
7030;DHT22;3556;53.500;10.176;2022-10-15T08:17:43;13.40;99.90
7030;DHT22;3556;53.500;10.176;2022-10-15T08:20:09;13.50;99.90
7030;DHT22;3556;53.500;10.176;2022-10-15T08:22:35;13.50;99.90
7030;DHT22;3556;53.500;10.176;2022-10-15T08:25:00;13.50;99.90
7030;DHT22;3556;53.500;10.176;2022-10-15T08:27:26;13.60;99.90
7030;DHT22;3556;53.500;10.176;2022-10-15T08:29:52;13.60;99.90
7030;DHT22;3556;53.500;10.176;2022-10-15T08:32:17;13.60;99.90
7030;DHT22;3556;53.500;10.176;2022-10-15T08:34:43;13.70;99.90
7030;DHT22;3556;53.500;10.176;2022-10-15T08:37:08;13.70;99.90
7030;DHT22;3556;53.500;10.176;2022-10-15T08:39:34;13.90;99.90
7030;DHT22;3556;53.500;10.176;2022-10-15T08:42:15;14.10;99.90
7030;DHT22;3556;53.500;10.176;2022-10-15T08:45:01;14.10;99.90
7030;DHT22;3556;53.500;10.176;2022-10-15T08:47:39;14.20;99.90
7030;DHT22;3556;53.500;10.176;2022-10-15T08:50:27;14.30;99.90
7030;DHT22;3556;53.500;10.176;2022-10-15T08:52:57;14.30;99.90
7030;DHT22;3556;53.500;10.176;2022-10-15T08:55:23;14.40;99.90
7030;DHT22;3556;53.500;10.176;2022-10-15T08:58:02;14.30;99.90
7030;DHT22;3556;53.500;10.176;2022-10-15T09:00:34;14.30;99.90
7030;DHT22;3556;53.500;10.176;2022-10-15T09:08:47;14.20;99.90
7030;DHT22;3556;53.500;10.176;2022-10-15T09:11:24;14.20;99.90
7030;DHT22;3556;53.500;10.176;2022-10-15T09:13:54;14.30;99.90
7030;DHT22;3556;53.500;10.176;2022-10-15T11:47:13;18.20;99.90
7030;DHT22;3556;53.500;10.176;2022-10-15T11:58:34;19.20;99.90
7030;DHT22;3556;53.500;10.176;2022-10-15T12:01:05;19.50;99.90
7030;DHT22;3556;53.500;10.176;2022-10-15T12:03:38;19.70;99.90
7030;DHT22;3556;53.500;10.176;2022-10-15T12:06:16;20.00;99.90
7030;DHT22;3556;53.500;10.176;2022-10-15T12:08:45;20.30;99.90
7030;DHT22;3556;53.500;10.176;2022-10-15T12:14:23;21.00;99.90
7030;DHT22;3556;53.500;10.176;2022-10-15T12:19:47;21.80;99.90
7030;DHT22;3556;53.500;10.176;2022-10-15T12:22:34;22.00;99.90
7030;DHT22;3556;53.500;10.176;2022-10-15T12:25:03;22.10;99.90
7030;DHT22;3556;53.500;10.176;2022-10-15T12:27:35;22.10;99.90
7030;DHT22;3556;53.500;10.176;2022-10-15T12:32:29;22.50;99.90
7030;DHT22;3556;53.500;10.176;2022-10-15T12:35:00;22.80;99.90
7030;DHT22;3556;53.500;10.176;2022-10-15T12:37:28;23.30;99.90
7030;DHT22;3556;53.500;10.176;2022-10-15T12:40:06;23.60;99.10
7030;DHT22;3556;53.500;10.176;2022-10-15T12:42:53;24.10;99.90
7030;DHT22;3556;53.500;10.176;2022-10-15T12:45:28;24.20;97.40
7030;DHT22;3556;53.500;10.176;2022-10-15T12:48:16;24.10;98.50
7030;DHT22;3556;53.500;10.176;2022-10-15T12:50:42;24.40;98.20
7030;DHT22;3556;53.500;10.176;2022-10-15T13:03:52;25.30;94.60
7030;DHT22;3556;53.500;10.176;2022-10-15T13:08:51;25.00;93.20
7030;DHT22;3556;53.500;10.176;2022-10-15T13:11:45;24.30;94.30
7030;DHT22;3556;53.500;10.176;2022-10-15T13:14:31;23.30;92.50
7030;DHT22;3556;53.500;10.176;2022-10-15T13:17:00;22.20;97.80
7030;DHT22;3556;53.500;10.176;2022-10-15T13:19:30;21.50;99.90
7030;DHT22;3556;53.500;10.176;2022-10-15T13:22:00;21.00;99.90
7030;DHT22;3556;53.500;10.176;2022-10-15T13:24:28;20.60;99.90
7030;DHT22;3556;53.500;10.176;2022-10-15T13:26:56;20.30;99.90
7030;DHT22;3556;53.500;10.176;2022-10-15T13:29:25;19.90;99.90
7030;DHT22;3556;53.500;10.176;2022-10-15T13:31:54;19.50;99.90
7030;DHT22;3556;53.500;10.176;2022-10-15T13:34:34;19.30;99.90
7030;DHT22;3556;53.500;10.176;2022-10-15T13:37:02;19.10;99.90
7030;DHT22;3556;53.500;10.176;2022-10-15T13:39:32;18.80;99.90
7030;DHT22;3556;53.500;10.176;2022-10-15T13:42:22;18.60;99.90
7030;DHT22;3556;53.500;10.176;2022-10-15T13:45:21;18.50;99.90
7030;DHT22;3556;53.500;10.176;2022-10-15T13:47:49;18.40;99.90
7030;DHT22;3556;53.500;10.176;2022-10-15T13:50:25;18.30;99.90
7030;DHT22;3556;53.500;10.176;2022-10-15T13:53:09;18.30;99.90
7030;DHT22;3556;53.500;10.176;2022-10-15T13:55:38;18.30;99.90
7030;DHT22;3556;53.500;10.176;2022-10-15T13:58:20;18.30;99.90
7030;DHT22;3556;53.500;10.176;2022-10-15T14:00:57;18.30;99.90
7030;DHT22;3556;53.500;10.176;2022-10-15T14:03:32;18.30;99.90
7030;DHT22;3556;53.500;10.176;2022-10-15T14:06:23;18.40;99.90
7030;DHT22;3556;53.500;10.176;2022-10-15T14:08:51;18.60;99.90
7030;DHT22;3556;53.500;10.176;2022-10-15T14:11:17;18.70;99.90
7030;DHT22;3556;53.500;10.176;2022-10-15T14:14:03;18.80;99.90
7030;DHT22;3556;53.500;10.176;2022-10-15T14:16:34;19.20;99.90
7030;DHT22;3556;53.500;10.176;2022-10-15T14:21:32;20.30;99.90
7030;DHT22;3556;53.500;10.176;2022-10-15T14:24:19;21.10;99.90
7030;DHT22;3556;53.500;10.176;2022-10-15T14:26:49;21.50;99.90
7030;DHT22;3556;53.500;10.176;2022-10-15T14:29:25;21.50;99.90
7030;DHT22;3556;53.500;10.176;2022-10-15T14:31:52;21.40;99.90
7030;DHT22;3556;53.500;10.176;2022-10-15T14:34:30;21.30;99.90
7030;DHT22;3556;53.500;10.176;2022-10-15T14:36:59;21.30;99.90
7030;DHT22;3556;53.500;10.176;2022-10-15T14:39:35;21.20;99.90
7030;DHT22;3556;53.500;10.176;2022-10-15T14:42:04;20.90;99.90
7030;DHT22;3556;53.500;10.176;2022-10-15T14:47:18;20.30;99.90
7030;DHT22;3556;53.500;10.176;2022-10-15T14:49:45;20.00;99.90
7030;DHT22;3556;53.500;10.176;2022-10-15T14:52:14;19.70;99.90
7030;DHT22;3556;53.500;10.176;2022-10-15T14:55:06;19.50;99.90
7030;DHT22;3556;53.500;10.176;2022-10-15T14:57:37;19.20;99.90
7030;DHT22;3556;53.500;10.176;2022-10-15T15:00:21;19.10;99.90
7030;DHT22;3556;53.500;10.176;2022-10-15T15:02:47;18.80;99.90
7030;DHT22;3556;53.500;10.176;2022-10-15T15:05:16;18.70;99.90
7030;DHT22;3556;53.500;10.176;2022-10-15T15:07:43;18.60;99.90
7030;DHT22;3556;53.500;10.176;2022-10-15T15:10:10;18.40;99.90
7030;DHT22;3556;53.500;10.176;2022-10-15T15:12:37;18.30;99.90
7030;DHT22;3556;53.500;10.176;2022-10-15T15:15:25;18.10;99.90
7030;DHT22;3556;53.500;10.176;2022-10-15T15:17:51;18.10;99.90
7030;DHT22;3556;53.500;10.176;2022-10-15T15:20:18;17.90;99.90
7030;DHT22;3556;53.500;10.176;2022-10-15T15:22:49;17.80;99.90
7030;DHT22;3556;53.500;10.176;2022-10-15T15:25:23;17.70;99.90
7030;DHT22;3556;53.500;10.176;2022-10-15T15:27:51;17.60;99.90
7030;DHT22;3556;53.500;10.176;2022-10-15T15:30:22;17.50;99.90
7030;DHT22;3556;53.500;10.176;2022-10-15T15:32:49;17.50;99.90
7030;DHT22;3556;53.500;10.176;2022-10-15T15:37:43;17.40;99.90
7030;DHT22;3556;53.500;10.176;2022-10-15T15:40:09;17.40;99.90
7030;DHT22;3556;53.500;10.176;2022-10-15T15:42:35;17.20;99.90
7030;DHT22;3556;53.500;10.176;2022-10-15T15:45:01;17.20;99.90
7030;DHT22;3556;53.500;10.176;2022-10-15T15:47:26;17.10;99.90
7030;DHT22;3556;53.500;10.176;2022-10-15T15:49:52;17.00;99.90
7030;DHT22;3556;53.500;10.176;2022-10-15T15:52:18;16.90;99.90
7030;DHT22;3556;53.500;10.176;2022-10-15T15:54:44;16.80;99.90
7030;DHT22;3556;53.500;10.176;2022-10-15T15:57:13;16.70;99.90
7030;DHT22;3556;53.500;10.176;2022-10-15T15:59:38;16.70;99.90
7030;DHT22;3556;53.500;10.176;2022-10-15T16:02:04;16.60;99.90
7030;DHT22;3556;53.500;10.176;2022-10-15T16:04:30;16.60;99.90
7030;DHT22;3556;53.500;10.176;2022-10-15T16:06:55;16.60;99.90
7030;DHT22;3556;53.500;10.176;2022-10-15T16:09:21;16.50;99.90
7030;DHT22;3556;53.500;10.176;2022-10-15T16:11:49;16.50;99.90
7030;DHT22;3556;53.500;10.176;2022-10-15T16:14:15;16.40;99.90
7030;DHT22;3556;53.500;10.176;2022-10-15T16:16:41;16.40;99.90
7030;DHT22;3556;53.500;10.176;2022-10-15T16:19:07;16.30;99.90
7030;DHT22;3556;53.500;10.176;2022-10-15T16:21:33;16.30;99.90
7030;DHT22;3556;53.500;10.176;2022-10-15T16:23:58;16.30;99.90
7030;DHT22;3556;53.500;10.176;2022-10-15T16:26:24;16.20;99.90
7030;DHT22;3556;53.500;10.176;2022-10-15T16:28:51;16.20;99.90
7030;DHT22;3556;53.500;10.176;2022-10-15T16:31:22;16.10;99.90
7030;DHT22;3556;53.500;10.176;2022-10-15T16:33:48;16.10;99.90
7030;DHT22;3556;53.500;10.176;2022-10-15T16:36:14;16.10;99.90
7030;DHT22;3556;53.500;10.176;2022-10-15T16:38:41;16.00;99.90
7030;DHT22;3556;53.500;10.176;2022-10-15T16:41:08;16.00;99.90
7030;DHT22;3556;53.500;10.176;2022-10-15T16:43:34;16.00;99.90
7030;DHT22;3556;53.500;10.176;2022-10-15T16:46:00;15.90;99.90
7030;DHT22;3556;53.500;10.176;2022-10-15T16:48:28;15.90;99.90
7030;DHT22;3556;53.500;10.176;2022-10-15T16:50:59;15.80;99.90
7030;DHT22;3556;53.500;10.176;2022-10-15T16:53:25;15.80;99.90
7030;DHT22;3556;53.500;10.176;2022-10-15T16:55:51;15.70;99.90
7030;DHT22;3556;53.500;10.176;2022-10-15T16:58:16;15.70;99.90
7030;DHT22;3556;53.500;10.176;2022-10-15T17:00:42;15.70;99.90
7030;DHT22;3556;53.500;10.176;2022-10-15T17:03:07;15.60;99.90
7030;DHT22;3556;53.500;10.176;2022-10-15T17:05:33;15.50;99.90
7030;DHT22;3556;53.500;10.176;2022-10-15T17:07:59;15.50;99.90
7030;DHT22;3556;53.500;10.176;2022-10-15T17:10:24;15.50;99.90
7030;DHT22;3556;53.500;10.176;2022-10-15T17:12:51;15.50;99.90
7030;DHT22;3556;53.500;10.176;2022-10-15T17:15:17;15.50;99.90
7030;DHT22;3556;53.500;10.176;2022-10-15T17:17:42;15.50;99.90
7030;DHT22;3556;53.500;10.176;2022-10-15T17:20:08;15.40;99.90
7030;DHT22;3556;53.500;10.176;2022-10-15T17:22:34;15.40;99.90
7030;DHT22;3556;53.500;10.176;2022-10-15T17:25:00;15.40;99.90
7030;DHT22;3556;53.500;10.176;2022-10-15T17:27:26;15.40;99.90
7030;DHT22;3556;53.500;10.176;2022-10-15T17:29:51;15.40;99.90
7030;DHT22;3556;53.500;10.176;2022-10-15T17:32:17;15.40;99.90
7030;DHT22;3556;53.500;10.176;2022-10-15T17:34:43;15.40;99.90
7030;DHT22;3556;53.500;10.176;2022-10-15T17:37:08;15.40;99.90
7030;DHT22;3556;53.500;10.176;2022-10-15T17:39:34;15.30;99.90
7030;DHT22;3556;53.500;10.176;2022-10-15T17:41:59;15.40;99.90
7030;DHT22;3556;53.500;10.176;2022-10-15T17:44:25;15.40;99.90
7030;DHT22;3556;53.500;10.176;2022-10-15T17:46:50;15.40;99.90
7030;DHT22;3556;53.500;10.176;2022-10-15T17:49:16;15.30;99.90
7030;DHT22;3556;53.500;10.176;2022-10-15T17:51:43;15.30;99.90
7030;DHT22;3556;53.500;10.176;2022-10-15T17:54:09;15.30;99.90
7030;DHT22;3556;53.500;10.176;2022-10-15T17:56:36;15.30;99.90
7030;DHT22;3556;53.500;10.176;2022-10-15T17:59:07;15.30;99.90
7030;DHT22;3556;53.500;10.176;2022-10-15T18:01:38;15.30;99.90
7030;DHT22;3556;53.500;10.176;2022-10-15T18:04:04;15.30;99.90
7030;DHT22;3556;53.500;10.176;2022-10-15T18:06:30;15.30;99.90
7030;DHT22;3556;53.500;10.176;2022-10-15T18:08:56;15.30;99.90
7030;DHT22;3556;53.500;10.176;2022-10-15T18:11:25;15.30;99.90
7030;DHT22;3556;53.500;10.176;2022-10-15T18:13:51;15.30;99.90
7030;DHT22;3556;53.500;10.176;2022-10-15T18:16:17;15.30;99.90
7030;DHT22;3556;53.500;10.176;2022-10-15T18:18:43;15.30;99.90
7030;DHT22;3556;53.500;10.176;2022-10-15T18:21:11;15.30;99.90
7030;DHT22;3556;53.500;10.176;2022-10-15T18:23:37;15.30;99.90
7030;DHT22;3556;53.500;10.176;2022-10-15T18:26:10;15.30;99.90
7030;DHT22;3556;53.500;10.176;2022-10-15T18:28:36;15.30;99.90
7030;DHT22;3556;53.500;10.176;2022-10-15T18:31:03;15.30;99.90
7030;DHT22;3556;53.500;10.176;2022-10-15T18:33:30;15.30;99.90
7030;DHT22;3556;53.500;10.176;2022-10-15T18:36:04;15.30;99.90
7030;DHT22;3556;53.500;10.176;2022-10-15T18:38:30;15.20;99.90
7030;DHT22;3556;53.500;10.176;2022-10-15T18:40:55;15.30;99.90
7030;DHT22;3556;53.500;10.176;2022-10-15T18:43:21;15.20;99.90
7030;DHT22;3556;53.500;10.176;2022-10-15T18:45:46;15.20;99.90
7030;DHT22;3556;53.500;10.176;2022-10-15T18:48:12;15.20;99.90
7030;DHT22;3556;53.500;10.176;2022-10-15T18:50:40;15.20;99.90
7030;DHT22;3556;53.500;10.176;2022-10-15T18:53:06;15.30;99.90
7030;DHT22;3556;53.500;10.176;2022-10-15T18:55:32;15.30;99.90
7030;DHT22;3556;53.500;10.176;2022-10-15T18:57:58;15.30;99.90
7030;DHT22;3556;53.500;10.176;2022-10-15T19:00:26;15.30;99.90
7030;DHT22;3556;53.500;10.176;2022-10-15T19:02:53;15.30;99.90
7030;DHT22;3556;53.500;10.176;2022-10-15T19:05:18;15.20;99.90
7030;DHT22;3556;53.500;10.176;2022-10-15T19:07:44;15.30;99.90
7030;DHT22;3556;53.500;10.176;2022-10-15T19:10:10;15.30;99.90
7030;DHT22;3556;53.500;10.176;2022-10-15T19:12:35;15.30;99.90
7030;DHT22;3556;53.500;10.176;2022-10-15T19:15:01;15.30;99.90
7030;DHT22;3556;53.500;10.176;2022-10-15T19:17:26;15.30;99.90
7030;DHT22;3556;53.500;10.176;2022-10-15T19:19:54;15.30;99.90
7030;DHT22;3556;53.500;10.176;2022-10-15T19:22:19;15.30;99.90
7030;DHT22;3556;53.500;10.176;2022-10-15T19:24:45;15.30;99.90
7030;DHT22;3556;53.500;10.176;2022-10-15T19:27:11;15.30;99.90
7030;DHT22;3556;53.500;10.176;2022-10-15T19:29:37;15.30;99.90
7030;DHT22;3556;53.500;10.176;2022-10-15T19:32:03;15.30;99.90
7030;DHT22;3556;53.500;10.176;2022-10-15T19:34:29;15.30;99.90
7030;DHT22;3556;53.500;10.176;2022-10-15T19:36:55;15.30;99.90
7030;DHT22;3556;53.500;10.176;2022-10-15T19:39:22;15.30;99.90